CFG7PC EDDF-LEPA
Flight info
| Callsign | CFG7PC |
|---|---|
| Flight time | N/A |
| Altitude | 39000 |
| Route | ANEKI2L/18 ANEKI Y163 HERBI Y164 MOPAN DCT LUTIX DCT BENOT DCT NEMOS DCT GEVEA DCT INCUS DCT BALSI DCT RETNO DCT TUPOX DCT MTG DCT DIVKO DCT VATIR DCT PIVUS N852 VERSO L129 LUNIK |
| Aircraft | A339/H-VGDW/C |
Departure
| Time | N/A |
|---|---|
| Airport | Frankfurt Main Airport (EDDF) |
Arrival
| Time | 2026-05-03 21:12 |
|---|---|
| Airport | Palma de Mallorca Airport (LEPA) |
| Time | Latitude | Longitude | Altitude | Speed | Heading |
|---|---|---|---|---|---|
| 2026-05-03 20:15 | 44.45268 | 5.64555 | 39116 ft | 453 kts | 196° |
| 2026-05-03 20:15 | 44.39138 | 5.62516 | 39119 ft | 452 kts | 199° |
| 2026-05-03 20:16 | 44.33164 | 5.59715 | 39114 ft | 449 kts | 205° |
| 2026-05-03 20:16 | 44.27296 | 5.56492 | 39112 ft | 450 kts | 205° |
| 2026-05-03 20:17 | 44.21435 | 5.53299 | 39115 ft | 450 kts | 205° |
| 2026-05-03 20:17 | 44.15604 | 5.50118 | 39111 ft | 449 kts | 205° |
| 2026-05-03 20:18 | 44.09763 | 5.46936 | 39110 ft | 449 kts | 205° |
| 2026-05-03 20:18 | 44.03910 | 5.43750 | 39103 ft | 448 kts | 204° |
| 2026-05-03 20:19 | 43.98108 | 5.40605 | 39100 ft | 447 kts | 205° |
| 2026-05-03 20:19 | 43.92274 | 5.37452 | 39093 ft | 448 kts | 204° |
| 2026-05-03 20:20 | 43.86718 | 5.34453 | 39086 ft | 448 kts | 204° |
| 2026-05-03 20:20 | 43.80856 | 5.31294 | 39081 ft | 449 kts | 204° |
| 2026-05-03 20:21 | 43.75032 | 5.28157 | 39081 ft | 449 kts | 204° |
| 2026-05-03 20:21 | 43.69206 | 5.25027 | 39078 ft | 448 kts | 204° |
| 2026-05-03 20:22 | 43.63342 | 5.21879 | 39074 ft | 449 kts | 204° |
| 2026-05-03 20:22 | 43.57477 | 5.18739 | 39076 ft | 449 kts | 204° |
| 2026-05-03 20:23 | 43.51662 | 5.15630 | 39079 ft | 449 kts | 204° |
| 2026-05-03 20:23 | 43.45779 | 5.12496 | 39077 ft | 449 kts | 204° |
| 2026-05-03 20:24 | 43.40098 | 5.09053 | 39076 ft | 448 kts | 209° |
| 2026-05-03 20:24 | 43.34657 | 5.04868 | 39069 ft | 447 kts | 214° |
| 2026-05-03 20:25 | 43.29493 | 5.00087 | 39068 ft | 446 kts | 216° |
| 2026-05-03 20:25 | 43.24346 | 4.95253 | 39066 ft | 446 kts | 216° |
| 2026-05-03 20:26 | 43.19213 | 4.90435 | 39074 ft | 447 kts | 216° |
| 2026-05-03 20:26 | 43.14058 | 4.85600 | 39071 ft | 447 kts | 216° |
| 2026-05-03 20:27 | 43.08936 | 4.80807 | 39070 ft | 448 kts | 216° |
| 2026-05-03 20:27 | 43.03663 | 4.76250 | 39069 ft | 448 kts | 211° |
| 2026-05-03 20:28 | 42.98181 | 4.72101 | 39071 ft | 449 kts | 211° |
| 2026-05-03 20:28 | 42.92714 | 4.67952 | 39064 ft | 449 kts | 211° |
| 2026-05-03 20:29 | 42.87352 | 4.63890 | 39058 ft | 448 kts | 211° |
| 2026-05-03 20:29 | 42.81903 | 4.59777 | 39055 ft | 447 kts | 211° |
| 2026-05-03 20:30 | 42.76490 | 4.55699 | 39045 ft | 448 kts | 211° |
| 2026-05-03 20:30 | 42.71019 | 4.51585 | 39050 ft | 448 kts | 211° |
| 2026-05-03 20:31 | 42.65585 | 4.47508 | 39039 ft | 448 kts | 211° |
| 2026-05-03 20:31 | 42.60130 | 4.43425 | 39048 ft | 447 kts | 211° |
| 2026-05-03 20:32 | 42.54699 | 4.39367 | 39035 ft | 447 kts | 211° |
| 2026-05-03 20:32 | 42.49253 | 4.35306 | 39041 ft | 447 kts | 211° |
| 2026-05-03 20:33 | 42.43784 | 4.31237 | 39033 ft | 447 kts | 211° |
| 2026-05-03 20:33 | 42.38302 | 4.27161 | 39030 ft | 449 kts | 211° |
| 2026-05-03 20:34 | 42.32842 | 4.23112 | 39028 ft | 448 kts | 210° |
| 2026-05-03 20:34 | 42.27358 | 4.19054 | 39038 ft | 448 kts | 211° |
| 2026-05-03 20:35 | 42.21880 | 4.15006 | 39028 ft | 448 kts | 211° |
| 2026-05-03 20:35 | 42.16392 | 4.10961 | 39019 ft | 448 kts | 211° |
| 2026-05-03 20:36 | 42.10939 | 4.06957 | 39027 ft | 447 kts | 211° |
| 2026-05-03 20:36 | 42.05476 | 4.02947 | 39011 ft | 446 kts | 211° |
| 2026-05-03 20:37 | 41.99994 | 3.98955 | 39026 ft | 448 kts | 209° |
| 2026-05-03 20:37 | 41.94329 | 3.95529 | 39017 ft | 450 kts | 204° |
| 2026-05-03 20:38 | 41.88446 | 3.92906 | 39017 ft | 453 kts | 198° |
| 2026-05-03 20:38 | 41.82289 | 3.91085 | 39005 ft | 456 kts | 193° |
| 2026-05-03 20:39 | 41.76015 | 3.89626 | 39007 ft | 456 kts | 193° |
| 2026-05-03 20:39 | 41.72913 | 3.88900 | 38874 ft | 453 kts | 193° |
| 2026-05-03 20:39 | 41.69829 | 3.88181 | 38371 ft | 451 kts | 193° |
| 2026-05-03 20:39 | 41.66711 | 3.87456 | 37649 ft | 450 kts | 193° |
| 2026-05-03 20:40 | 41.63650 | 3.86748 | 36886 ft | 450 kts | 193° |
| 2026-05-03 20:40 | 41.60532 | 3.86028 | 36153 ft | 451 kts | 193° |
| 2026-05-03 20:40 | 41.57418 | 3.85311 | 35473 ft | 454 kts | 193° |
| 2026-05-03 20:40 | 41.54337 | 3.84606 | 34785 ft | 456 kts | 192° |
| 2026-05-03 20:41 | 41.51207 | 3.83889 | 34009 ft | 457 kts | 192° |
| 2026-05-03 20:41 | 41.48043 | 3.83166 | 33139 ft | 460 kts | 192° |
| 2026-05-03 20:41 | 41.44897 | 3.82445 | 32393 ft | 459 kts | 192° |
| 2026-05-03 20:41 | 41.41757 | 3.81729 | 31865 ft | 454 kts | 192° |
| 2026-05-03 20:42 | 41.38654 | 3.81022 | 31347 ft | 450 kts | 192° |
| 2026-05-03 20:42 | 41.35569 | 3.80318 | 30793 ft | 446 kts | 192° |
| 2026-05-03 20:42 | 41.32533 | 3.79624 | 30231 ft | 444 kts | 192° |
| 2026-05-03 20:42 | 41.29532 | 3.78940 | 29715 ft | 440 kts | 192° |
| 2026-05-03 20:43 | 41.26519 | 3.78253 | 29134 ft | 438 kts | 192° |
| 2026-05-03 20:43 | 41.23501 | 3.77567 | 28656 ft | 433 kts | 192° |
| 2026-05-03 20:43 | 41.20546 | 3.76895 | 28240 ft | 428 kts | 192° |
| 2026-05-03 20:43 | 41.17667 | 3.76178 | 27818 ft | 423 kts | 195° |
| 2026-05-03 20:44 | 41.14834 | 3.75227 | 27422 ft | 417 kts | 198° |
| 2026-05-03 20:44 | 41.12115 | 3.74057 | 27051 ft | 410 kts | 202° |
| 2026-05-03 20:44 | 41.09441 | 3.72700 | 26694 ft | 404 kts | 203° |
| 2026-05-03 20:44 | 41.06855 | 3.71369 | 26329 ft | 399 kts | 204° |
| 2026-05-03 20:45 | 41.04271 | 3.70036 | 25960 ft | 395 kts | 204° |
| 2026-05-03 20:45 | 41.01715 | 3.68719 | 25580 ft | 391 kts | 204° |
| 2026-05-03 20:45 | 40.99181 | 3.67414 | 25214 ft | 387 kts | 204° |
| 2026-05-03 20:45 | 40.96677 | 3.66127 | 24843 ft | 383 kts | 204° |
| 2026-05-03 20:46 | 40.94218 | 3.64864 | 24504 ft | 379 kts | 204° |
| 2026-05-03 20:46 | 40.91778 | 3.63610 | 24153 ft | 375 kts | 204° |
| 2026-05-03 20:46 | 40.89353 | 3.62366 | 23818 ft | 371 kts | 204° |
| 2026-05-03 20:46 | 40.86946 | 3.61132 | 23474 ft | 368 kts | 204° |
| 2026-05-03 20:47 | 40.84572 | 3.59916 | 23127 ft | 365 kts | 204° |
| 2026-05-03 20:47 | 40.82194 | 3.58700 | 22792 ft | 362 kts | 204° |
| 2026-05-03 20:47 | 40.79857 | 3.57505 | 22471 ft | 359 kts | 204° |
| 2026-05-03 20:47 | 40.77536 | 3.56317 | 22130 ft | 356 kts | 204° |
| 2026-05-03 20:48 | 40.75246 | 3.55147 | 21795 ft | 353 kts | 204° |
| 2026-05-03 20:48 | 40.72973 | 3.53987 | 21471 ft | 350 kts | 204° |
| 2026-05-03 20:48 | 40.70703 | 3.52830 | 21144 ft | 348 kts | 204° |
| 2026-05-03 20:48 | 40.68453 | 3.51684 | 20806 ft | 346 kts | 204° |
| 2026-05-03 20:49 | 40.66196 | 3.50534 | 20485 ft | 343 kts | 204° |
| 2026-05-03 20:49 | 40.63990 | 3.49411 | 20173 ft | 340 kts | 204° |
| 2026-05-03 20:49 | 40.61780 | 3.48287 | 19847 ft | 338 kts | 204° |
| 2026-05-03 20:49 | 40.59581 | 3.47168 | 19520 ft | 336 kts | 204° |
| 2026-05-03 20:50 | 40.57422 | 3.46071 | 19198 ft | 334 kts | 204° |
| 2026-05-03 20:50 | 40.55255 | 3.44971 | 18885 ft | 331 kts | 204° |
| 2026-05-03 20:50 | 40.53091 | 3.43873 | 18564 ft | 329 kts | 204° |
| 2026-05-03 20:50 | 40.50965 | 3.42795 | 18258 ft | 327 kts | 204° |
| 2026-05-03 20:51 | 40.48858 | 3.41729 | 17945 ft | 325 kts | 204° |
| 2026-05-03 20:51 | 40.46732 | 3.40655 | 17648 ft | 323 kts | 204° |
| 2026-05-03 20:51 | 40.44597 | 3.39835 | 17340 ft | 324 kts | 195° |
| 2026-05-03 20:51 | 40.42358 | 3.39449 | 17049 ft | 328 kts | 187° |
| 2026-05-03 20:52 | 40.39999 | 3.39466 | 17019 ft | 345 kts | 182° |
| 2026-05-03 20:52 | 40.37573 | 3.39592 | 17015 ft | 349 kts | 182° |
| 2026-05-03 20:52 | 40.35109 | 3.39743 | 17013 ft | 350 kts | 182° |
| 2026-05-03 20:52 | 40.32686 | 3.39884 | 17012 ft | 350 kts | 182° |
| 2026-05-03 20:53 | 40.30248 | 3.40023 | 17013 ft | 350 kts | 182° |
| 2026-05-03 20:53 | 40.27824 | 3.40159 | 17012 ft | 350 kts | 182° |
| 2026-05-03 20:53 | 40.25392 | 3.40298 | 17009 ft | 350 kts | 182° |
| 2026-05-03 20:53 | 40.22946 | 3.40438 | 16805 ft | 349 kts | 182° |
| 2026-05-03 20:54 | 40.20525 | 3.40577 | 16560 ft | 347 kts | 182° |
| 2026-05-03 20:54 | 40.15835 | 3.39902 | 15986 ft | 335 kts | 198° |
| 2026-05-03 20:54 | 40.13600 | 3.39158 | 15582 ft | 333 kts | 198° |
| 2026-05-03 20:55 | 40.11347 | 3.38415 | 15183 ft | 332 kts | 198° |
| 2026-05-03 20:55 | 40.09095 | 3.37698 | 14806 ft | 330 kts | 198° |
| 2026-05-03 20:55 | 40.06873 | 3.37011 | 14423 ft | 328 kts | 197° |
| 2026-05-03 20:55 | 40.04677 | 3.36347 | 14057 ft | 326 kts | 197° |
| 2026-05-03 20:56 | 40.02462 | 3.35685 | 13690 ft | 323 kts | 197° |
| 2026-05-03 20:56 | 40.00274 | 3.35036 | 13324 ft | 321 kts | 197° |
| 2026-05-03 20:56 | 39.98105 | 3.34395 | 12951 ft | 319 kts | 197° |
| 2026-05-03 20:56 | 39.95918 | 3.33751 | 12571 ft | 318 kts | 197° |
| 2026-05-03 20:57 | 39.93766 | 3.33118 | 12198 ft | 316 kts | 197° |
| 2026-05-03 20:57 | 39.91632 | 3.32491 | 11843 ft | 314 kts | 196° |
| 2026-05-03 20:57 | 39.89513 | 3.31872 | 11481 ft | 312 kts | 197° |
| 2026-05-03 20:57 | 39.87381 | 3.31248 | 11111 ft | 311 kts | 196° |
| 2026-05-03 20:58 | 39.85263 | 3.30629 | 10735 ft | 310 kts | 196° |
| 2026-05-03 20:58 | 39.83158 | 3.30013 | 10372 ft | 309 kts | 196° |
| 2026-05-03 20:58 | 39.81060 | 3.29400 | 10017 ft | 308 kts | 196° |
| 2026-05-03 20:58 | 39.78978 | 3.28792 | 9665 ft | 306 kts | 196° |
| 2026-05-03 20:59 | 39.76913 | 3.28192 | 9480 ft | 299 kts | 196° |
| 2026-05-03 20:59 | 39.74923 | 3.27616 | 9334 ft | 291 kts | 196° |
| 2026-05-03 20:59 | 39.72971 | 3.27049 | 9193 ft | 284 kts | 196° |
| 2026-05-03 20:59 | 39.71051 | 3.26490 | 9055 ft | 277 kts | 196° |
| 2026-05-03 21:00 | 39.69190 | 3.25948 | 8916 ft | 270 kts | 196° |
| 2026-05-03 21:00 | 39.67987 | 3.25598 | 8771 ft | 268 kts | 196° |
| 2026-05-03 21:00 | 39.65558 | 3.24889 | 8397 ft | 268 kts | 196° |
| 2026-05-03 21:00 | 39.63727 | 3.24357 | 8119 ft | 267 kts | 196° |
| 2026-05-03 21:01 | 39.62037 | 3.23514 | 7819 ft | 262 kts | 219° |
| 2026-05-03 21:01 | 39.60936 | 3.21677 | 7549 ft | 259 kts | 244° |
| 2026-05-03 21:01 | 39.60180 | 3.19560 | 7294 ft | 257 kts | 243° |
| 2026-05-03 21:01 | 39.59396 | 3.17484 | 7005 ft | 258 kts | 243° |
| 2026-05-03 21:02 | 39.58601 | 3.15398 | 6722 ft | 258 kts | 242° |
| 2026-05-03 21:02 | 39.57811 | 3.13321 | 6442 ft | 258 kts | 242° |
| 2026-05-03 21:02 | 39.57023 | 3.11250 | 6221 ft | 255 kts | 242° |
| 2026-05-03 21:02 | 39.56229 | 3.09162 | 6098 ft | 258 kts | 242° |
| 2026-05-03 21:03 | 39.55431 | 3.07062 | 5970 ft | 259 kts | 242° |
| 2026-05-03 21:03 | 39.54642 | 3.04988 | 5846 ft | 258 kts | 242° |
| 2026-05-03 21:03 | 39.53845 | 3.02891 | 5721 ft | 259 kts | 242° |
| 2026-05-03 21:03 | 39.53043 | 3.00786 | 5597 ft | 259 kts | 242° |
| 2026-05-03 21:04 | 39.52250 | 2.98701 | 5469 ft | 259 kts | 242° |
| 2026-05-03 21:04 | 39.51454 | 2.96613 | 5338 ft | 258 kts | 242° |
| 2026-05-03 21:04 | 39.50664 | 2.94538 | 5215 ft | 258 kts | 242° |
| 2026-05-03 21:04 | 39.49864 | 2.92438 | 5090 ft | 258 kts | 242° |
| 2026-05-03 21:05 | 39.49072 | 2.90360 | 4953 ft | 257 kts | 242° |
| 2026-05-03 21:05 | 39.48278 | 2.88277 | 4668 ft | 258 kts | 242° |
| 2026-05-03 21:05 | 39.47482 | 2.86193 | 4379 ft | 259 kts | 242° |
| 2026-05-03 21:05 | 39.46686 | 2.84111 | 4124 ft | 259 kts | 242° |
| 2026-05-03 21:06 | 39.45891 | 2.82033 | 3947 ft | 255 kts | 242° |
| 2026-05-03 21:06 | 39.45095 | 2.79954 | 3623 ft | 259 kts | 241° |
| 2026-05-03 21:06 | 39.44298 | 2.77876 | 3349 ft | 259 kts | 241° |
| 2026-05-03 21:06 | 39.43618 | 2.75705 | 3094 ft | 261 kts | 251° |
| 2026-05-03 21:07 | 39.43257 | 2.73413 | 2847 ft | 262 kts | 260° |
| 2026-05-03 21:07 | 39.43030 | 2.71073 | 2606 ft | 262 kts | 261° |
| 2026-05-03 21:07 | 39.42823 | 2.68717 | 2381 ft | 262 kts | 261° |
| 2026-05-03 21:07 | 39.42614 | 2.66374 | 2138 ft | 262 kts | 261° |
| 2026-05-03 21:08 | 39.42543 | 2.64053 | 1934 ft | 262 kts | 279° |
| 2026-05-03 21:08 | 39.43367 | 2.62004 | 1755 ft | 258 kts | 317° |
| 2026-05-03 21:08 | 39.44893 | 2.60948 | 1696 ft | 243 kts | 349° |
| 2026-05-03 21:08 | 39.46517 | 2.60871 | 1689 ft | 225 kts | 10° |
| 2026-05-03 21:09 | 39.48000 | 2.61189 | 1668 ft | 207 kts | 13° |
| 2026-05-03 21:09 | 39.49352 | 2.61496 | 1700 ft | 188 kts | 12° |
| 2026-05-03 21:09 | 39.50469 | 2.62144 | 1611 ft | 169 kts | 47° |
| 2026-05-03 21:09 | 39.51157 | 2.63313 | 1398 ft | 159 kts | 63° |
| 2026-05-03 21:10 | 39.51678 | 2.64553 | 1187 ft | 153 kts | 65° |
| 2026-05-03 21:10 | 39.52192 | 2.65731 | 989 ft | 147 kts | 62° |
| 2026-05-03 21:10 | 39.52716 | 2.66846 | 800 ft | 142 kts | 60° |
| 2026-05-03 21:10 | 39.53231 | 2.67927 | 631 ft | 142 kts | 60° |
| 2026-05-03 21:11 | 39.53748 | 2.69022 | 444 ft | 141 kts | 60° |
| 2026-05-03 21:11 | 39.54255 | 2.70098 | 259 ft | 140 kts | 59° |
| 2026-05-03 21:11 | 39.54764 | 2.71176 | 72 ft | 139 kts | 59° |
| 2026-05-03 21:11 | 39.55234 | 2.72169 | 49 ft | 109 kts | 57° |
| 2026-05-03 21:12 | 39.55539 | 2.72811 | 49 ft | 56 kts | 59° |
| 2026-05-03 21:12 | 39.55665 | 2.73102 | 49 ft | 30 kts | 68° |
| 2026-05-03 21:12 | 39.55705 | 2.73352 | 49 ft | 25 kts | 88° |
| 2026-05-03 21:12 | 39.55706 | 2.73480 | 49 ft | 4 kts | 90° |
| 2026-05-03 21:13 | 39.55706 | 2.73490 | 49 ft | 2 kts | 90° |
| 2026-05-03 21:13 | 39.55706 | 2.73518 | 49 ft | 3 kts | 100° |
| 2026-05-03 21:13 | 39.55685 | 2.73544 | 49 ft | 5 kts | 168° |
| 2026-05-03 21:13 | 39.55661 | 2.73517 | 49 ft | 6 kts | 238° |
| 2026-05-03 21:14 | 39.55624 | 2.73495 | 49 ft | 7 kts | 166° |
| 2026-05-03 21:14 | 39.55572 | 2.73533 | 49 ft | 9 kts | 148° |
| 2026-05-03 21:14 | 39.55511 | 2.73582 | 49 ft | 11 kts | 148° |
| 2026-05-03 21:14 | 39.55441 | 2.73637 | 49 ft | 12 kts | 149° |
| 2026-05-03 21:15 | 39.55361 | 2.73699 | 49 ft | 13 kts | 148° |
| 2026-05-03 21:15 | 39.55277 | 2.73767 | 49 ft | 14 kts | 148° |
| 2026-05-03 21:15 | 39.55214 | 2.73817 | 49 ft | 5 kts | 153° |
| 2026-05-03 21:15 | 39.55180 | 2.73804 | 49 ft | 6 kts | 230° |
| 2026-05-03 21:16 | 39.55143 | 2.73770 | 49 ft | 6 kts | 182° |
| 2026-05-03 21:16 | 39.55099 | 2.73763 | 49 ft | 6 kts | 210° |
| 2026-05-03 21:16 | 39.55074 | 2.73727 | 49 ft | 4 kts | 237° |
| 2026-05-03 21:16 | 39.55061 | 2.73702 | 49 ft | 2 kts | 236° |
| 2026-05-03 21:17 | 39.55059 | 2.73700 | 49 ft | 0 kts | 236° |